TimeCDT,TemperatureF,Dew PointF,Humidity,Sea Level PressureIn,VisibilityMPH,Wind Direction,Wind SpeedMPH,Gust SpeedMPH,PrecipitationIn,Events,Conditions,WindDirDegrees,DateUTC
12:53 AM,33.1,28.9,85,30.21,7.0,Calm,Calm,-,N/A,,Clear,0,2013-04-04 05:53:00
1:53 AM,28.9,27.0,92,30.22,6.0,WNW,3.5,-,N/A,,Clear,290,2013-04-04 06:53:00
2:53 AM,28.9,26.1,89,30.22,6.0,West,3.5,-,N/A,,Clear,270,2013-04-04 07:53:00
3:53 AM,27.0,24.1,89,30.19,2.5,WSW,3.5,-,N/A,,Clear,240,2013-04-04 08:53:00
4:02 AM,26.6,24.8,93,30.15,3.0,WSW,3.5,-,N/A,,Clear,240,2013-04-04 09:02:00
4:53 AM,25.0,23.0,92,30.18,4.0,WSW,6.9,-,N/A,,Clear,240,2013-04-04 09:53:00
5:53 AM,25.0,23.0,92,30.18,4.0,WSW,5.8,-,N/A,,Clear,240,2013-04-04 10:53:00
6:53 AM,27.0,25.0,92,30.19,5.0,West,5.8,-,N/A,,Clear,260,2013-04-04 11:53:00
7:53 AM,26.1,23.0,88,30.19,5.0,WNW,3.5,-,N/A,,Clear,290,2013-04-04 12:53:00
8:53 AM,33.1,27.0,78,30.19,10.0,NW,6.9,-,N/A,,Clear,310,2013-04-04 13:53:00
9:53 AM,45.0,34.0,65,30.17,10.0,NNW,5.8,-,N/A,,Clear,330,2013-04-04 14:53:00
10:53 AM,52.0,34.0,50,30.15,10.0,North,5.8,-,N/A,,Clear,350,2013-04-04 15:53:00
11:53 AM,57.0,35.1,44,30.15,10.0,NNW,5.8,-,N/A,,Clear,340,2013-04-04 16:53:00
12:53 PM,64.0,30.0,28,30.12,10.0,North,8.1,-,N/A,,Clear,10,2013-04-04 17:53:00
1:53 PM,66.9,26.1,21,30.11,10.0,NE,8.1,-,N/A,,Clear,40,2013-04-04 18:53:00
2:53 PM,68.0,23.0,18,30.08,10.0,Calm,Calm,-,N/A,,Clear,0,2013-04-04 19:53:00
3:53 PM,69.1,25.0,19,30.07,10.0,ENE,4.6,-,N/A,,Clear,70,2013-04-04 20:53:00
4:53 PM,70.0,25.0,18,30.05,10.0,SSE,6.9,-,N/A,,Clear,150,2013-04-04 21:53:00
5:53 PM,70.0,25.0,18,30.06,10.0,East,9.2,-,N/A,,Clear,90,2013-04-04 22:53:00
6:53 PM,69.1,26.1,20,30.05,10.0,ESE,10.4,-,N/A,,Clear,110,2013-04-04 23:53:00
7:53 PM,63.0,30.0,29,30.07,10.0,SE,10.4,-,N/A,,Clear,130,2013-04-05 00:53:00
8:53 PM,55.0,30.9,40,30.08,10.0,SE,11.5,-,N/A,,Clear,130,2013-04-05 01:53:00
9:53 PM,53.1,30.0,41,30.07,10.0,SE,12.7,-,N/A,,Clear,130,2013-04-05 02:53:00
10:53 PM,48.0,30.0,50,30.08,10.0,SSE,8.1,-,N/A,,Clear,150,2013-04-05 03:53:00
11:53 PM,48.9,26.1,41,30.08,10.0,South,11.5,-,N/A,,Clear,170,2013-04-05 04:53:00